sensor_id;sensor_type;location;lat;lon;timestamp;temperature;humidity
18229;DHT22;9239;50.932;3.142;2022-12-17T00:00:44;-3.00;99.90
18229;DHT22;9239;50.932;3.142;2022-12-17T00:03:30;-3.00;99.90
18229;DHT22;9239;50.932;3.142;2022-12-17T00:06:14;-3.00;99.90
18229;DHT22;9239;50.932;3.142;2022-12-17T00:08:59;-3.00;99.90
18229;DHT22;9239;50.932;3.142;2022-12-17T00:11:43;-3.00;99.90
18229;DHT22;9239;50.932;3.142;2022-12-17T00:14:27;-3.00;99.90
18229;DHT22;9239;50.932;3.142;2022-12-17T00:17:17;-3.00;99.90
18229;DHT22;9239;50.932;3.142;2022-12-17T00:20:03;-3.00;99.90
18229;DHT22;9239;50.932;3.142;2022-12-17T00:22:47;-3.00;99.90
18229;DHT22;9239;50.932;3.142;2022-12-17T00:25:31;-3.00;99.90
18229;DHT22;9239;50.932;3.142;2022-12-17T00:28:16;-2.90;99.90
18229;DHT22;9239;50.932;3.142;2022-12-17T00:31:00;-2.90;99.90
18229;DHT22;9239;50.932;3.142;2022-12-17T00:33:45;-2.90;99.90
18229;DHT22;9239;50.932;3.142;2022-12-17T00:36:31;-2.90;99.90
18229;DHT22;9239;50.932;3.142;2022-12-17T00:39:15;-3.00;99.90
18229;DHT22;9239;50.932;3.142;2022-12-17T00:41:59;-3.00;99.90
18229;DHT22;9239;50.932;3.142;2022-12-17T00:44:43;-3.00;99.90
18229;DHT22;9239;50.932;3.142;2022-12-17T00:47:27;-3.00;99.90
18229;DHT22;9239;50.932;3.142;2022-12-17T00:50:12;-3.00;99.90
18229;DHT22;9239;50.932;3.142;2022-12-17T00:52:57;-3.00;99.90
18229;DHT22;9239;50.932;3.142;2022-12-17T00:55:41;-3.10;99.90
18229;DHT22;9239;50.932;3.142;2022-12-17T00:58:25;-3.10;99.90
18229;DHT22;9239;50.932;3.142;2022-12-17T01:01:09;-3.10;99.90
18229;DHT22;9239;50.932;3.142;2022-12-17T01:03:53;-3.10;99.90
18229;DHT22;9239;50.932;3.142;2022-12-17T01:06:39;-3.10;99.90
18229;DHT22;9239;50.932;3.142;2022-12-17T01:09:25;-3.10;99.90
18229;DHT22;9239;50.932;3.142;2022-12-17T01:12:09;-3.10;99.90
18229;DHT22;9239;50.932;3.142;2022-12-17T01:14:54;-3.20;99.90
18229;DHT22;9239;50.932;3.142;2022-12-17T01:17:38;-3.20;99.90
18229;DHT22;9239;50.932;3.142;2022-12-17T01:20:22;-3.20;99.90
18229;DHT22;9239;50.932;3.142;2022-12-17T01:23:06;-3.10;99.90
18229;DHT22;9239;50.932;3.142;2022-12-17T01:25:53;-3.10;99.90
18229;DHT22;9239;50.932;3.142;2022-12-17T01:28:37;-3.10;99.90
18229;DHT22;9239;50.932;3.142;2022-12-17T01:31:21;-3.10;99.90
18229;DHT22;9239;50.932;3.142;2022-12-17T01:34:06;-3.10;99.90
18229;DHT22;9239;50.932;3.142;2022-12-17T01:36:50;-3.10;99.90
18229;DHT22;9239;50.932;3.142;2022-12-17T01:39:34;-3.10;99.90
18229;DHT22;9239;50.932;3.142;2022-12-17T01:42:20;-3.00;99.90
18229;DHT22;9239;50.932;3.142;2022-12-17T01:45:07;-3.00;99.90
18229;DHT22;9239;50.932;3.142;2022-12-17T01:47:56;-3.00;99.90
18229;DHT22;9239;50.932;3.142;2022-12-17T01:50:44;-3.10;99.90
18229;DHT22;9239;50.932;3.142;2022-12-17T01:53:32;-3.10;99.90
18229;DHT22;9239;50.932;3.142;2022-12-17T01:56:18;-3.10;99.90
18229;DHT22;9239;50.932;3.142;2022-12-17T01:59:06;-3.00;99.90
18229;DHT22;9239;50.932;3.142;2022-12-17T02:01:50;-2.90;99.90
18229;DHT22;9239;50.932;3.142;2022-12-17T02:04:35;-2.80;99.90
18229;DHT22;9239;50.932;3.142;2022-12-17T02:07:36;-2.80;99.90
18229;DHT22;9239;50.932;3.142;2022-12-17T02:10:24;-2.80;99.90
18229;DHT22;9239;50.932;3.142;2022-12-17T02:13:14;-2.70;99.90
18229;DHT22;9239;50.932;3.142;2022-12-17T02:16:07;-2.60;99.90
18229;DHT22;9239;50.932;3.142;2022-12-17T02:18:49;-2.60;99.90
18229;DHT22;9239;50.932;3.142;2022-12-17T02:21:38;-2.60;99.90
18229;DHT22;9239;50.932;3.142;2022-12-17T02:24:29;-2.60;99.90
18229;DHT22;9239;50.932;3.142;2022-12-17T02:27:17;-2.60;99.90
18229;DHT22;9239;50.932;3.142;2022-12-17T02:30:05;-2.60;99.90
18229;DHT22;9239;50.932;3.142;2022-12-17T02:32:50;-2.60;99.90
18229;DHT22;9239;50.932;3.142;2022-12-17T02:35:40;-2.70;99.90
18229;DHT22;9239;50.932;3.142;2022-12-17T02:38:27;-2.70;99.90
18229;DHT22;9239;50.932;3.142;2022-12-17T02:41:14;-2.80;99.90
18229;DHT22;9239;50.932;3.142;2022-12-17T02:44:01;-2.80;99.90
18229;DHT22;9239;50.932;3.142;2022-12-17T02:46:46;-2.90;99.90
18229;DHT22;9239;50.932;3.142;2022-12-17T02:49:31;-2.90;99.90
18229;DHT22;9239;50.932;3.142;2022-12-17T02:52:17;-3.00;99.90
18229;DHT22;9239;50.932;3.142;2022-12-17T02:55:03;-2.90;99.90
18229;DHT22;9239;50.932;3.142;2022-12-17T02:57:48;-2.80;99.90
18229;DHT22;9239;50.932;3.142;2022-12-17T03:00:34;-2.80;99.90
18229;DHT22;9239;50.932;3.142;2022-12-17T03:03:18;-2.80;99.90
18229;DHT22;9239;50.932;3.142;2022-12-17T03:06:03;-3.00;99.90
18229;DHT22;9239;50.932;3.142;2022-12-17T03:08:47;-2.90;99.90
18229;DHT22;9239;50.932;3.142;2022-12-17T03:11:31;-2.90;99.90
18229;DHT22;9239;50.932;3.142;2022-12-17T03:14:15;-2.90;99.90
18229;DHT22;9239;50.932;3.142;2022-12-17T03:17:01;-2.90;99.90
18229;DHT22;9239;50.932;3.142;2022-12-17T03:19:45;-2.90;99.90
18229;DHT22;9239;50.932;3.142;2022-12-17T03:22:29;-2.90;99.90
18229;DHT22;9239;50.932;3.142;2022-12-17T03:25:14;-3.00;99.90
18229;DHT22;9239;50.932;3.142;2022-12-17T03:28:03;-3.00;99.90
18229;DHT22;9239;50.932;3.142;2022-12-17T03:30:47;-3.00;99.90
18229;DHT22;9239;50.932;3.142;2022-12-17T03:33:47;-3.00;99.90
18229;DHT22;9239;50.932;3.142;2022-12-17T03:36:46;-3.00;99.90
18229;DHT22;9239;50.932;3.142;2022-12-17T03:39:30;-3.00;99.90
18229;DHT22;9239;50.932;3.142;2022-12-17T03:42:15;-3.10;99.90
18229;DHT22;9239;50.932;3.142;2022-12-17T03:44:59;-3.00;99.90
18229;DHT22;9239;50.932;3.142;2022-12-17T03:47:43;-3.10;99.90
18229;DHT22;9239;50.932;3.142;2022-12-17T03:50:29;-3.10;99.90
18229;DHT22;9239;50.932;3.142;2022-12-17T03:53:13;-3.10;99.90
18229;DHT22;9239;50.932;3.142;2022-12-17T03:55:58;-3.00;99.90
18229;DHT22;9239;50.932;3.142;2022-12-17T03:58:42;-3.10;99.90
18229;DHT22;9239;50.932;3.142;2022-12-17T04:01:26;-3.20;99.90
18229;DHT22;9239;50.932;3.142;2022-12-17T04:04:10;-3.20;99.90
18229;DHT22;9239;50.932;3.142;2022-12-17T04:06:56;-3.30;99.90
18229;DHT22;9239;50.932;3.142;2022-12-17T04:09:40;-3.30;99.90
18229;DHT22;9239;50.932;3.142;2022-12-17T04:12:24;-3.40;99.90
18229;DHT22;9239;50.932;3.142;2022-12-17T04:15:09;-3.40;99.90
18229;DHT22;9239;50.932;3.142;2022-12-17T04:17:54;-3.40;99.90
18229;DHT22;9239;50.932;3.142;2022-12-17T04:20:38;-3.40;99.90
18229;DHT22;9239;50.932;3.142;2022-12-17T04:23:23;-3.40;99.90
18229;DHT22;9239;50.932;3.142;2022-12-17T04:26:08;-3.40;99.90
18229;DHT22;9239;50.932;3.142;2022-12-17T04:28:52;-3.40;99.90
18229;DHT22;9239;50.932;3.142;2022-12-17T04:31:36;-3.40;99.90
18229;DHT22;9239;50.932;3.142;2022-12-17T04:34:20;-3.40;99.90
18229;DHT22;9239;50.932;3.142;2022-12-17T04:37:05;-3.50;99.90
18229;DHT22;9239;50.932;3.142;2022-12-17T04:39:50;-3.50;99.90
18229;DHT22;9239;50.932;3.142;2022-12-17T04:42:37;-3.40;99.90
18229;DHT22;9239;50.932;3.142;2022-12-17T04:45:21;-3.50;99.90
18229;DHT22;9239;50.932;3.142;2022-12-17T04:48:07;-3.50;99.90
18229;DHT22;9239;50.932;3.142;2022-12-17T04:51:00;-3.50;99.90
18229;DHT22;9239;50.932;3.142;2022-12-17T04:53:44;-3.60;99.90
18229;DHT22;9239;50.932;3.142;2022-12-17T04:56:30;-3.60;99.90
18229;DHT22;9239;50.932;3.142;2022-12-17T04:59:14;-3.60;99.90
18229;DHT22;9239;50.932;3.142;2022-12-17T05:01:58;-3.50;99.90
18229;DHT22;9239;50.932;3.142;2022-12-17T05:04:43;-3.50;99.90
18229;DHT22;9239;50.932;3.142;2022-12-17T05:07:27;-3.50;99.90
18229;DHT22;9239;50.932;3.142;2022-12-17T05:10:11;-3.50;99.90
18229;DHT22;9239;50.932;3.142;2022-12-17T05:12:57;-3.50;99.90
18229;DHT22;9239;50.932;3.142;2022-12-17T05:15:42;-3.60;99.90
18229;DHT22;9239;50.932;3.142;2022-12-17T05:18:26;-3.80;99.90
18229;DHT22;9239;50.932;3.142;2022-12-17T05:21:11;-3.80;99.90
18229;DHT22;9239;50.932;3.142;2022-12-17T05:23:55;-3.90;99.90
18229;DHT22;9239;50.932;3.142;2022-12-17T05:26:40;-4.00;99.90
18229;DHT22;9239;50.932;3.142;2022-12-17T05:29:25;-3.90;99.90
18229;DHT22;9239;50.932;3.142;2022-12-17T05:32:25;-3.90;99.90
18229;DHT22;9239;50.932;3.142;2022-12-17T05:35:09;-3.90;99.90
18229;DHT22;9239;50.932;3.142;2022-12-17T05:37:53;-3.90;99.90
18229;DHT22;9239;50.932;3.142;2022-12-17T05:40:38;-3.90;99.90
18229;DHT22;9239;50.932;3.142;2022-12-17T05:43:22;-3.90;99.90
18229;DHT22;9239;50.932;3.142;2022-12-17T05:46:07;-3.90;99.90
18229;DHT22;9239;50.932;3.142;2022-12-17T05:48:52;-4.00;99.90
18229;DHT22;9239;50.932;3.142;2022-12-17T05:51:36;-4.00;99.90
18229;DHT22;9239;50.932;3.142;2022-12-17T05:54:20;-4.00;99.90
18229;DHT22;9239;50.932;3.142;2022-12-17T05:57:04;-4.00;99.90
18229;DHT22;9239;50.932;3.142;2022-12-17T05:59:48;-4.10;99.90
18229;DHT22;9239;50.932;3.142;2022-12-17T06:02:34;-4.10;99.90
18229;DHT22;9239;50.932;3.142;2022-12-17T06:05:18;-4.10;99.90
18229;DHT22;9239;50.932;3.142;2022-12-17T06:08:03;-4.10;99.90
18229;DHT22;9239;50.932;3.142;2022-12-17T06:10:48;-4.10;99.90
18229;DHT22;9239;50.932;3.142;2022-12-17T06:13:32;-4.10;99.90
18229;DHT22;9239;50.932;3.142;2022-12-17T06:16:16;-4.00;99.90
18229;DHT22;9239;50.932;3.142;2022-12-17T06:19:02;-4.10;99.90
18229;DHT22;9239;50.932;3.142;2022-12-17T06:21:46;-4.10;99.90
18229;DHT22;9239;50.932;3.142;2022-12-17T06:24:30;-4.20;99.90
18229;DHT22;9239;50.932;3.142;2022-12-17T06:27:14;-4.20;99.90
18229;DHT22;9239;50.932;3.142;2022-12-17T06:29:58;-4.20;99.90
18229;DHT22;9239;50.932;3.142;2022-12-17T06:32:43;-4.10;99.90
18229;DHT22;9239;50.932;3.142;2022-12-17T06:35:28;-4.10;99.90
18229;DHT22;9239;50.932;3.142;2022-12-17T06:38:12;-4.10;99.90
18229;DHT22;9239;50.932;3.142;2022-12-17T06:40:59;-4.20;99.90
18229;DHT22;9239;50.932;3.142;2022-12-17T06:43:44;-4.30;99.90
18229;DHT22;9239;50.932;3.142;2022-12-17T06:46:28;-4.40;99.90
18229;DHT22;9239;50.932;3.142;2022-12-17T06:49:12;-4.40;99.90
18229;DHT22;9239;50.932;3.142;2022-12-17T06:51:57;-4.50;99.90
18229;DHT22;9239;50.932;3.142;2022-12-17T06:54:41;-4.50;99.90
18229;DHT22;9239;50.932;3.142;2022-12-17T06:57:26;-4.60;99.90
18229;DHT22;9239;50.932;3.142;2022-12-17T07:00:11;-4.60;99.90
18229;DHT22;9239;50.932;3.142;2022-12-17T07:02:55;-4.60;99.90
18229;DHT22;9239;50.932;3.142;2022-12-17T07:05:39;-4.70;99.90
18229;DHT22;9239;50.932;3.142;2022-12-17T07:08:25;-4.70;99.90
18229;DHT22;9239;50.932;3.142;2022-12-17T07:11:09;-4.70;99.90
18229;DHT22;9239;50.932;3.142;2022-12-17T07:13:54;-4.70;99.90
18229;DHT22;9239;50.932;3.142;2022-12-17T07:16:38;-4.70;99.90
18229;DHT22;9239;50.932;3.142;2022-12-17T07:19:23;-4.60;99.90
18229;DHT22;9239;50.932;3.142;2022-12-17T07:22:07;-4.60;99.90
18229;DHT22;9239;50.932;3.142;2022-12-17T07:24:52;-4.70;99.90
18229;DHT22;9239;50.932;3.142;2022-12-17T07:27:37;-4.60;99.90
18229;DHT22;9239;50.932;3.142;2022-12-17T07:30:21;-4.70;99.90
18229;DHT22;9239;50.932;3.142;2022-12-17T07:33:06;-4.60;99.90
18229;DHT22;9239;50.932;3.142;2022-12-17T07:35:53;-4.50;99.90
18229;DHT22;9239;50.932;3.142;2022-12-17T07:38:37;-4.60;99.90
18229;DHT22;9239;50.932;3.142;2022-12-17T07:41:23;-4.60;99.90
18229;DHT22;9239;50.932;3.142;2022-12-17T07:44:07;-4.60;99.90
18229;DHT22;9239;50.932;3.142;2022-12-17T07:46:51;-4.50;99.90
18229;DHT22;9239;50.932;3.142;2022-12-17T07:49:35;-4.50;99.90
18229;DHT22;9239;50.932;3.142;2022-12-17T07:52:20;-4.50;99.90
18229;DHT22;9239;50.932;3.142;2022-12-17T07:55:05;-4.50;99.90
18229;DHT22;9239;50.932;3.142;2022-12-17T07:57:58;-4.50;99.90
18229;DHT22;9239;50.932;3.142;2022-12-17T08:00:42;-4.40;99.90
18229;DHT22;9239;50.932;3.142;2022-12-17T08:03:26;-4.50;99.90
18229;DHT22;9239;50.932;3.142;2022-12-17T08:06:10;-4.40;99.90
18229;DHT22;9239;50.932;3.142;2022-12-17T08:08:56;-4.40;99.90
18229;DHT22;9239;50.932;3.142;2022-12-17T08:11:40;-4.40;99.90
18229;DHT22;9239;50.932;3.142;2022-12-17T08:14:26;-4.30;99.90
18229;DHT22;9239;50.932;3.142;2022-12-17T08:17:10;-4.30;99.90
18229;DHT22;9239;50.932;3.142;2022-12-17T08:19:54;-4.30;99.90
18229;DHT22;9239;50.932;3.142;2022-12-17T08:22:38;-4.30;99.90
18229;DHT22;9239;50.932;3.142;2022-12-17T08:25:22;-4.30;99.90
18229;DHT22;9239;50.932;3.142;2022-12-17T08:28:07;-4.20;99.90
18229;DHT22;9239;50.932;3.142;2022-12-17T08:30:53;-4.00;99.90
18229;DHT22;9239;50.932;3.142;2022-12-17T08:33:37;-3.90;99.90
18229;DHT22;9239;50.932;3.142;2022-12-17T08:36:21;-3.80;99.90
18229;DHT22;9239;50.932;3.142;2022-12-17T08:39:05;-3.80;99.90
18229;DHT22;9239;50.932;3.142;2022-12-17T08:41:49;-3.70;99.90
18229;DHT22;9239;50.932;3.142;2022-12-17T08:44:33;-3.70;99.90
18229;DHT22;9239;50.932;3.142;2022-12-17T08:47:19;-3.60;99.90
18229;DHT22;9239;50.932;3.142;2022-12-17T08:50:04;-3.60;99.90
18229;DHT22;9239;50.932;3.142;2022-12-17T08:52:48;-3.50;99.90
18229;DHT22;9239;50.932;3.142;2022-12-17T08:55:32;-3.40;99.90
18229;DHT22;9239;50.932;3.142;2022-12-17T08:58:17;-3.30;99.90
18229;DHT22;9239;50.932;3.142;2022-12-17T09:01:01;-3.20;99.90
18229;DHT22;9239;50.932;3.142;2022-12-17T09:03:47;-3.10;99.90
18229;DHT22;9239;50.932;3.142;2022-12-17T09:06:32;-3.00;99.90
18229;DHT22;9239;50.932;3.142;2022-12-17T09:09:16;-2.90;99.90
18229;DHT22;9239;50.932;3.142;2022-12-17T09:12:00;-2.80;99.90
18229;DHT22;9239;50.932;3.142;2022-12-17T09:14:45;-2.70;99.90
18229;DHT22;9239;50.932;3.142;2022-12-17T09:17:29;-2.60;99.90
18229;DHT22;9239;50.932;3.142;2022-12-17T09:20:14;-2.40;99.90
18229;DHT22;9239;50.932;3.142;2022-12-17T09:22:59;-2.30;99.90
18229;DHT22;9239;50.932;3.142;2022-12-17T09:25:43;-2.30;99.90
18229;DHT22;9239;50.932;3.142;2022-12-17T09:28:34;-2.30;99.90
18229;DHT22;9239;50.932;3.142;2022-12-17T09:31:24;-2.20;99.90
18229;DHT22;9239;50.932;3.142;2022-12-17T09:34:05;-2.20;99.90
18229;DHT22;9239;50.932;3.142;2022-12-17T09:36:51;-2.10;99.90
18229;DHT22;9239;50.932;3.142;2022-12-17T09:39:35;-2.10;99.90
18229;DHT22;9239;50.932;3.142;2022-12-17T09:42:22;-2.00;99.90
18229;DHT22;9239;50.932;3.142;2022-12-17T09:45:13;-2.00;99.90
18229;DHT22;9239;50.932;3.142;2022-12-17T09:48:04;-1.90;99.90
18229;DHT22;9239;50.932;3.142;2022-12-17T09:50:51;-1.90;99.90
18229;DHT22;9239;50.932;3.142;2022-12-17T09:53:44;-1.80;99.90
18229;DHT22;9239;50.932;3.142;2022-12-17T09:56:30;-1.70;99.90
18229;DHT22;9239;50.932;3.142;2022-12-17T09:59:19;-1.70;99.90
18229;DHT22;9239;50.932;3.142;2022-12-17T10:02:12;-1.70;99.90
18229;DHT22;9239;50.932;3.142;2022-12-17T10:04:58;-1.60;99.90
18229;DHT22;9239;50.932;3.142;2022-12-17T10:07:44;-1.50;99.90
18229;DHT22;9239;50.932;3.142;2022-12-17T10:10:45;-1.50;99.90
18229;DHT22;9239;50.932;3.142;2022-12-17T10:13:26;-1.50;99.90
18229;DHT22;9239;50.932;3.142;2022-12-17T10:16:20;-1.40;99.90
18229;DHT22;9239;50.932;3.142;2022-12-17T10:19:12;-1.40;99.90
18229;DHT22;9239;50.932;3.142;2022-12-17T10:22:08;-1.30;99.90
18229;DHT22;9239;50.932;3.142;2022-12-17T10:24:53;-1.10;99.90
18229;DHT22;9239;50.932;3.142;2022-12-17T10:27:39;-1.00;99.90
18229;DHT22;9239;50.932;3.142;2022-12-17T10:30:23;-1.00;99.90
18229;DHT22;9239;50.932;3.142;2022-12-17T10:33:15;-1.00;99.90
18229;DHT22;9239;50.932;3.142;2022-12-17T10:36:02;-1.00;99.90
18229;DHT22;9239;50.932;3.142;2022-12-17T10:38:52;-0.80;99.90
18229;DHT22;9239;50.932;3.142;2022-12-17T10:41:40;-0.80;99.90
18229;DHT22;9239;50.932;3.142;2022-12-17T10:44:28;-0.70;99.90
18229;DHT22;9239;50.932;3.142;2022-12-17T10:47:14;-0.60;99.90
18229;DHT22;9239;50.932;3.142;2022-12-17T10:50:00;-0.50;99.90
18229;DHT22;9239;50.932;3.142;2022-12-17T10:52:46;-0.50;99.90
18229;DHT22;9239;50.932;3.142;2022-12-17T10:55:32;-0.40;99.90
18229;DHT22;9239;50.932;3.142;2022-12-17T10:58:19;-0.40;99.90
18229;DHT22;9239;50.932;3.142;2022-12-17T11:01:06;-0.30;99.90
18229;DHT22;9239;50.932;3.142;2022-12-17T11:03:54;-0.20;99.90
18229;DHT22;9239;50.932;3.142;2022-12-17T11:06:41;-0.20;99.90
18229;DHT22;9239;50.932;3.142;2022-12-17T11:09:33;-0.20;99.90
18229;DHT22;9239;50.932;3.142;2022-12-17T11:12:21;-0.10;99.90
18229;DHT22;9239;50.932;3.142;2022-12-17T11:15:15;0.00;99.90
18229;DHT22;9239;50.932;3.142;2022-12-17T11:18:04;0.00;99.90
18229;DHT22;9239;50.932;3.142;2022-12-17T11:20:53;0.10;99.90
18229;DHT22;9239;50.932;3.142;2022-12-17T11:23:40;0.20;99.90
18229;DHT22;9239;50.932;3.142;2022-12-17T11:26:30;0.30;99.90
18229;DHT22;9239;50.932;3.142;2022-12-17T11:29:15;0.40;99.90
18229;DHT22;9239;50.932;3.142;2022-12-17T11:32:24;0.50;99.90
18229;DHT22;9239;50.932;3.142;2022-12-17T11:35:17;0.60;99.90
18229;DHT22;9239;50.932;3.142;2022-12-17T11:38:11;0.70;99.90
18229;DHT22;9239;50.932;3.142;2022-12-17T11:41:03;0.70;99.90
18229;DHT22;9239;50.932;3.142;2022-12-17T11:43:58;0.80;99.90
18229;DHT22;9239;50.932;3.142;2022-12-17T11:46:49;0.80;99.90
18229;DHT22;9239;50.932;3.142;2022-12-17T11:49:41;0.90;99.90
18229;DHT22;9239;50.932;3.142;2022-12-17T11:52:34;1.00;99.90
18229;DHT22;9239;50.932;3.142;2022-12-17T11:55:28;1.00;99.90
18229;DHT22;9239;50.932;3.142;2022-12-17T11:58:21;1.00;99.90
18229;DHT22;9239;50.932;3.142;2022-12-17T12:01:16;1.00;99.90
18229;DHT22;9239;50.932;3.142;2022-12-17T12:04:13;1.00;99.90
18229;DHT22;9239;50.932;3.142;2022-12-17T12:07:08;1.00;99.90
18229;DHT22;9239;50.932;3.142;2022-12-17T12:10:03;1.00;99.90
18229;DHT22;9239;50.932;3.142;2022-12-17T12:12:56;1.00;99.90
18229;DHT22;9239;50.932;3.142;2022-12-17T12:15:57;1.00;99.90
18229;DHT22;9239;50.932;3.142;2022-12-17T12:18:52;0.90;99.90
18229;DHT22;9239;50.932;3.142;2022-12-17T12:21:41;0.90;99.90
18229;DHT22;9239;50.932;3.142;2022-12-17T12:24:53;0.90;99.90
18229;DHT22;9239;50.932;3.142;2022-12-17T12:27:51;0.90;99.90
18229;DHT22;9239;50.932;3.142;2022-12-17T12:30:46;1.00;99.90
18229;DHT22;9239;50.932;3.142;2022-12-17T12:33:43;1.00;99.90
18229;DHT22;9239;50.932;3.142;2022-12-17T12:36:29;1.00;99.90
18229;DHT22;9239;50.932;3.142;2022-12-17T12:39:18;1.00;99.90
18229;DHT22;9239;50.932;3.142;2022-12-17T12:42:08;1.10;99.90
18229;DHT22;9239;50.932;3.142;2022-12-17T12:45:01;1.10;99.90
18229;DHT22;9239;50.932;3.142;2022-12-17T12:47:55;1.20;99.90
18229;DHT22;9239;50.932;3.142;2022-12-17T12:50:59;1.20;99.90
18229;DHT22;9239;50.932;3.142;2022-12-17T12:53:55;1.20;99.90
18229;DHT22;9239;50.932;3.142;2022-12-17T12:56:39;1.30;99.90
18229;DHT22;9239;50.932;3.142;2022-12-17T12:59:31;1.20;99.90
18229;DHT22;9239;50.932;3.142;2022-12-17T13:02:25;1.20;99.90
18229;DHT22;9239;50.932;3.142;2022-12-17T13:05:26;1.20;99.90
18229;DHT22;9239;50.932;3.142;2022-12-17T13:08:14;1.30;99.90
18229;DHT22;9239;50.932;3.142;2022-12-17T13:10:43;1.30;99.90
18229;DHT22;9239;50.932;3.142;2022-12-17T13:13:15;1.20;99.90
18229;DHT22;9239;50.932;3.142;2022-12-17T13:15:50;1.20;99.90
18229;DHT22;9239;50.932;3.142;2022-12-17T13:18:25;1.30;99.90
18229;DHT22;9239;50.932;3.142;2022-12-17T13:21:02;1.30;99.90
18229;DHT22;9239;50.932;3.142;2022-12-17T13:23:32;1.30;99.90
18229;DHT22;9239;50.932;3.142;2022-12-17T13:26:21;1.30;99.90
18229;DHT22;9239;50.932;3.142;2022-12-17T13:29:09;1.20;99.90
18229;DHT22;9239;50.932;3.142;2022-12-17T13:31:48;1.20;99.90
18229;DHT22;9239;50.932;3.142;2022-12-17T13:34:23;1.20;99.90
18229;DHT22;9239;50.932;3.142;2022-12-17T13:36:55;1.20;99.90
18229;DHT22;9239;50.932;3.142;2022-12-17T13:39:33;1.20;99.90
18229;DHT22;9239;50.932;3.142;2022-12-17T13:42:02;1.20;99.90
18229;DHT22;9239;50.932;3.142;2022-12-17T13:44:34;1.20;99.90
18229;DHT22;9239;50.932;3.142;2022-12-17T13:47:04;1.20;99.90
18229;DHT22;9239;50.932;3.142;2022-12-17T13:49:33;1.10;99.90
18229;DHT22;9239;50.932;3.142;2022-12-17T13:52:02;1.10;99.90
18229;DHT22;9239;50.932;3.142;2022-12-17T13:54:29;1.00;99.90
18229;DHT22;9239;50.932;3.142;2022-12-17T13:57:06;0.90;99.90
18229;DHT22;9239;50.932;3.142;2022-12-17T13:59:33;0.80;99.90
18229;DHT22;9239;50.932;3.142;2022-12-17T14:02:03;0.70;99.90
18229;DHT22;9239;50.932;3.142;2022-12-17T14:04:30;0.60;99.90
18229;DHT22;9239;50.932;3.142;2022-12-17T14:07:03;0.50;99.90
18229;DHT22;9239;50.932;3.142;2022-12-17T14:09:34;0.30;99.90
18229;DHT22;9239;50.932;3.142;2022-12-17T14:12:03;0.30;99.90
18229;DHT22;9239;50.932;3.142;2022-12-17T14:14:52;0.20;99.90
18229;DHT22;9239;50.932;3.142;2022-12-17T14:17:22;0.10;99.90
18229;DHT22;9239;50.932;3.142;2022-12-17T14:19:55;-0.10;99.90
18229;DHT22;9239;50.932;3.142;2022-12-17T14:22:31;-0.20;99.90
18229;DHT22;9239;50.932;3.142;2022-12-17T14:24:59;-0.40;99.90
18229;DHT22;9239;50.932;3.142;2022-12-17T14:27:31;-0.40;99.90
18229;DHT22;9239;50.932;3.142;2022-12-17T14:29:59;-0.40;99.90
18229;DHT22;9239;50.932;3.142;2022-12-17T14:32:31;-0.50;99.90
18229;DHT22;9239;50.932;3.142;2022-12-17T14:34:58;-0.60;99.90
18229;DHT22;9239;50.932;3.142;2022-12-17T14:37:27;-0.70;99.90
18229;DHT22;9239;50.932;3.142;2022-12-17T14:40:00;-0.70;99.90
18229;DHT22;9239;50.932;3.142;2022-12-17T14:42:28;-0.80;99.90
18229;DHT22;9239;50.932;3.142;2022-12-17T14:44:58;-0.70;99.90
18229;DHT22;9239;50.932;3.142;2022-12-17T14:47:26;-0.70;99.90
18229;DHT22;9239;50.932;3.142;2022-12-17T14:49:57;-0.70;99.90
18229;DHT22;9239;50.932;3.142;2022-12-17T14:52:37;-0.80;99.90
18229;DHT22;9239;50.932;3.142;2022-12-17T14:55:29;-0.90;99.90
18229;DHT22;9239;50.932;3.142;2022-12-17T14:58:18;-1.00;99.90
18229;DHT22;9239;50.932;3.142;2022-12-17T15:00:47;-1.00;99.90
18229;DHT22;9239;50.932;3.142;2022-12-17T15:03:21;-1.00;99.90
18229;DHT22;9239;50.932;3.142;2022-12-17T15:05:51;-1.10;99.90
18229;DHT22;9239;50.932;3.142;2022-12-17T15:08:20;-1.10;99.90
18229;DHT22;9239;50.932;3.142;2022-12-17T15:10:47;-1.20;99.90
18229;DHT22;9239;50.932;3.142;2022-12-17T15:13:14;-1.30;99.90
18229;DHT22;9239;50.932;3.142;2022-12-17T15:15:41;-1.30;99.90
18229;DHT22;9239;50.932;3.142;2022-12-17T15:18:08;-1.30;99.90
18229;DHT22;9239;50.932;3.142;2022-12-17T15:20:35;-1.30;99.90
18229;DHT22;9239;50.932;3.142;2022-12-17T15:23:03;-1.40;99.90
18229;DHT22;9239;50.932;3.142;2022-12-17T15:25:31;-1.30;99.90
18229;DHT22;9239;50.932;3.142;2022-12-17T15:27:58;-1.40;99.90
18229;DHT22;9239;50.932;3.142;2022-12-17T15:30:25;-1.40;99.90
18229;DHT22;9239;50.932;3.142;2022-12-17T15:32:52;-1.40;99.90
18229;DHT22;9239;50.932;3.142;2022-12-17T15:35:19;-1.40;99.90
18229;DHT22;9239;50.932;3.142;2022-12-17T15:37:46;-1.40;99.90
18229;DHT22;9239;50.932;3.142;2022-12-17T15:40:13;-1.40;99.90
18229;DHT22;9239;50.932;3.142;2022-12-17T15:42:41;-1.40;99.90
18229;DHT22;9239;50.932;3.142;2022-12-17T15:45:25;-1.50;99.90
18229;DHT22;9239;50.932;3.142;2022-12-17T15:47:52;-1.50;99.90
18229;DHT22;9239;50.932;3.142;2022-12-17T15:50:19;-1.40;99.90
18229;DHT22;9239;50.932;3.142;2022-12-17T15:52:46;-1.50;99.90
18229;DHT22;9239;50.932;3.142;2022-12-17T15:55:13;-1.50;99.90
18229;DHT22;9239;50.932;3.142;2022-12-17T15:57:42;-1.60;99.90
18229;DHT22;9239;50.932;3.142;2022-12-17T16:00:10;-1.60;99.90
18229;DHT22;9239;50.932;3.142;2022-12-17T16:02:37;-1.70;99.90
18229;DHT22;9239;50.932;3.142;2022-12-17T16:05:05;-1.60;99.90
18229;DHT22;9239;50.932;3.142;2022-12-17T16:07:32;-1.60;99.90
18229;DHT22;9239;50.932;3.142;2022-12-17T16:09:59;-1.60;99.90
18229;DHT22;9239;50.932;3.142;2022-12-17T16:12:26;-1.50;99.90
18229;DHT22;9239;50.932;3.142;2022-12-17T16:14:55;-1.50;99.90
18229;DHT22;9239;50.932;3.142;2022-12-17T16:17:21;-1.40;99.90
18229;DHT22;9239;50.932;3.142;2022-12-17T16:19:48;-1.40;99.90
18229;DHT22;9239;50.932;3.142;2022-12-17T16:22:15;-1.40;99.90
18229;DHT22;9239;50.932;3.142;2022-12-17T16:24:42;-1.50;99.90
18229;DHT22;9239;50.932;3.142;2022-12-17T16:27:09;-1.50;99.90
18229;DHT22;9239;50.932;3.142;2022-12-17T16:29:37;-1.50;99.90
18229;DHT22;9239;50.932;3.142;2022-12-17T16:32:05;-1.50;99.90
18229;DHT22;9239;50.932;3.142;2022-12-17T16:34:32;-1.30;99.90
18229;DHT22;9239;50.932;3.142;2022-12-17T16:36:59;-1.40;99.90
18229;DHT22;9239;50.932;3.142;2022-12-17T16:39:26;-1.40;99.90
18229;DHT22;9239;50.932;3.142;2022-12-17T16:41:53;-1.40;99.90
18229;DHT22;9239;50.932;3.142;2022-12-17T16:44:20;-1.40;99.90
18229;DHT22;9239;50.932;3.142;2022-12-17T16:46:47;-1.40;99.90
18229;DHT22;9239;50.932;3.142;2022-12-17T16:49:17;-1.40;99.90
18229;DHT22;9239;50.932;3.142;2022-12-17T16:51:45;-1.40;99.90
18229;DHT22;9239;50.932;3.142;2022-12-17T16:54:15;-1.50;99.90
18229;DHT22;9239;50.932;3.142;2022-12-17T16:56:43;-1.50;99.90
18229;DHT22;9239;50.932;3.142;2022-12-17T16:59:12;-1.60;99.90
18229;DHT22;9239;50.932;3.142;2022-12-17T17:01:40;-1.50;99.90
18229;DHT22;9239;50.932;3.142;2022-12-17T17:04:10;-1.50;99.90
18229;DHT22;9239;50.932;3.142;2022-12-17T17:06:39;-1.50;99.90
18229;DHT22;9239;50.932;3.142;2022-12-17T17:09:07;-1.60;99.90
18229;DHT22;9239;50.932;3.142;2022-12-17T17:11:34;-1.60;99.90
18229;DHT22;9239;50.932;3.142;2022-12-17T17:14:01;-1.60;99.90
18229;DHT22;9239;50.932;3.142;2022-12-17T17:16:29;-1.60;99.90
18229;DHT22;9239;50.932;3.142;2022-12-17T17:18:55;-1.60;99.90
18229;DHT22;9239;50.932;3.142;2022-12-17T17:21:25;-1.50;99.90
18229;DHT22;9239;50.932;3.142;2022-12-17T17:23:56;-1.60;99.90
18229;DHT22;9239;50.932;3.142;2022-12-17T17:26:24;-1.60;99.90